sensor_id;sensor_type;location;lat;lon;timestamp;P1;durP1;ratioP1;P2;durP2;ratioP2
809;SDS011;387;48.772;9.186;2024-03-06T00:00:27;7.27;;;3.27;;
809;SDS011;387;48.772;9.186;2024-03-06T00:02:53;6.70;;;3.47;;
809;SDS011;387;48.772;9.186;2024-03-06T00:05:20;7.60;;;4.73;;
809;SDS011;387;48.772;9.186;2024-03-06T00:07:45;9.77;;;5.07;;
809;SDS011;387;48.772;9.186;2024-03-06T00:10:11;6.80;;;3.80;;
809;SDS011;387;48.772;9.186;2024-03-06T00:12:37;8.67;;;4.97;;
809;SDS011;387;48.772;9.186;2024-03-06T00:15:03;11.63;;;4.70;;
809;SDS011;387;48.772;9.186;2024-03-06T00:17:28;15.10;;;6.73;;
809;SDS011;387;48.772;9.186;2024-03-06T00:19:54;6.03;;;4.30;;
809;SDS011;387;48.772;9.186;2024-03-06T00:22:20;9.90;;;4.47;;
809;SDS011;387;48.772;9.186;2024-03-06T00:24:45;7.97;;;4.30;;
809;SDS011;387;48.772;9.186;2024-03-06T00:27:13;5.30;;;4.10;;
809;SDS011;387;48.772;9.186;2024-03-06T00:29:38;7.70;;;4.20;;
809;SDS011;387;48.772;9.186;2024-03-06T00:32:04;5.33;;;3.30;;
809;SDS011;387;48.772;9.186;2024-03-06T00:34:30;6.03;;;3.50;;
809;SDS011;387;48.772;9.186;2024-03-06T00:36:56;4.17;;;2.90;;
809;SDS011;387;48.772;9.186;2024-03-06T00:39:22;7.73;;;4.10;;
809;SDS011;387;48.772;9.186;2024-03-06T00:41:47;5.33;;;3.17;;
809;SDS011;387;48.772;9.186;2024-03-06T00:44:13;3.30;;;2.63;;
809;SDS011;387;48.772;9.186;2024-03-06T00:46:40;6.20;;;3.67;;
809;SDS011;387;48.772;9.186;2024-03-06T00:49:05;6.87;;;3.57;;
809;SDS011;387;48.772;9.186;2024-03-06T00:51:31;5.87;;;3.00;;
809;SDS011;387;48.772;9.186;2024-03-06T00:54:01;13.20;;;3.53;;
809;SDS011;387;48.772;9.186;2024-03-06T00:56:26;11.13;;;5.60;;
809;SDS011;387;48.772;9.186;2024-03-06T00:58:52;6.83;;;3.63;;
809;SDS011;387;48.772;9.186;2024-03-06T01:01:17;8.00;;;3.23;;
809;SDS011;387;48.772;9.186;2024-03-06T01:03:43;5.70;;;3.00;;
809;SDS011;387;48.772;9.186;2024-03-06T01:06:09;3.50;;;2.23;;
809;SDS011;387;48.772;9.186;2024-03-06T01:08:35;4.10;;;2.70;;
809;SDS011;387;48.772;9.186;2024-03-06T01:11:01;6.07;;;2.87;;
809;SDS011;387;48.772;9.186;2024-03-06T01:13:29;4.10;;;2.97;;
809;SDS011;387;48.772;9.186;2024-03-06T01:15:55;4.33;;;2.63;;
809;SDS011;387;48.772;9.186;2024-03-06T01:18:20;5.33;;;2.70;;
809;SDS011;387;48.772;9.186;2024-03-06T01:20:46;7.33;;;2.60;;
809;SDS011;387;48.772;9.186;2024-03-06T01:23:11;5.47;;;3.10;;
809;SDS011;387;48.772;9.186;2024-03-06T01:25:37;8.60;;;2.60;;
809;SDS011;387;48.772;9.186;2024-03-06T01:28:03;4.30;;;2.97;;
809;SDS011;387;48.772;9.186;2024-03-06T01:30:28;12.80;;;3.20;;
809;SDS011;387;48.772;9.186;2024-03-06T01:32:54;7.03;;;2.70;;
809;SDS011;387;48.772;9.186;2024-03-06T01:35:19;3.80;;;2.43;;
809;SDS011;387;48.772;9.186;2024-03-06T01:37:45;3.73;;;2.57;;
809;SDS011;387;48.772;9.186;2024-03-06T01:40:11;3.50;;;2.60;;
809;SDS011;387;48.772;9.186;2024-03-06T01:42:37;6.53;;;3.13;;
809;SDS011;387;48.772;9.186;2024-03-06T01:45:03;5.10;;;3.10;;
809;SDS011;387;48.772;9.186;2024-03-06T01:47:29;3.63;;;2.53;;
809;SDS011;387;48.772;9.186;2024-03-06T01:49:55;4.70;;;2.90;;
809;SDS011;387;48.772;9.186;2024-03-06T01:52:21;4.80;;;3.00;;
809;SDS011;387;48.772;9.186;2024-03-06T01:54:48;5.50;;;3.00;;
809;SDS011;387;48.772;9.186;2024-03-06T01:57:15;4.60;;;2.80;;
809;SDS011;387;48.772;9.186;2024-03-06T01:59:42;8.13;;;3.00;;
809;SDS011;387;48.772;9.186;2024-03-06T02:02:08;6.13;;;3.20;;
809;SDS011;387;48.772;9.186;2024-03-06T02:04:36;5.20;;;3.17;;
809;SDS011;387;48.772;9.186;2024-03-06T02:07:02;6.07;;;3.03;;
809;SDS011;387;48.772;9.186;2024-03-06T02:09:28;4.40;;;3.23;;
809;SDS011;387;48.772;9.186;2024-03-06T02:11:54;7.33;;;3.33;;
809;SDS011;387;48.772;9.186;2024-03-06T02:14:20;4.67;;;2.97;;
809;SDS011;387;48.772;9.186;2024-03-06T02:16:45;4.83;;;3.20;;
809;SDS011;387;48.772;9.186;2024-03-06T02:19:11;7.10;;;3.40;;
809;SDS011;387;48.772;9.186;2024-03-06T02:21:37;4.90;;;3.37;;
809;SDS011;387;48.772;9.186;2024-03-06T02:24:02;5.40;;;3.30;;
809;SDS011;387;48.772;9.186;2024-03-06T02:29:50;5.40;;;3.17;;
809;SDS011;387;48.772;9.186;2024-03-06T02:32:16;4.70;;;3.67;;
809;SDS011;387;48.772;9.186;2024-03-06T02:34:43;7.60;;;3.93;;
809;SDS011;387;48.772;9.186;2024-03-06T02:37:08;9.60;;;5.37;;
809;SDS011;387;48.772;9.186;2024-03-06T02:39:34;8.40;;;5.20;;
809;SDS011;387;48.772;9.186;2024-03-06T02:42:00;11.57;;;5.20;;
809;SDS011;387;48.772;9.186;2024-03-06T02:44:26;14.70;;;6.33;;
809;SDS011;387;48.772;9.186;2024-03-06T02:46:51;11.70;;;5.67;;
809;SDS011;387;48.772;9.186;2024-03-06T02:49:17;9.70;;;5.77;;
809;SDS011;387;48.772;9.186;2024-03-06T02:51:43;15.73;;;9.20;;
809;SDS011;387;48.772;9.186;2024-03-06T02:54:09;18.83;;;8.77;;
809;SDS011;387;48.772;9.186;2024-03-06T02:56:34;15.23;;;9.30;;
809;SDS011;387;48.772;9.186;2024-03-06T02:59:00;19.27;;;9.70;;
809;SDS011;387;48.772;9.186;2024-03-06T03:01:28;13.47;;;8.00;;
809;SDS011;387;48.772;9.186;2024-03-06T03:03:54;16.23;;;8.10;;
809;SDS011;387;48.772;9.186;2024-03-06T03:06:20;11.70;;;7.23;;
809;SDS011;387;48.772;9.186;2024-03-06T03:08:49;11.87;;;7.30;;
809;SDS011;387;48.772;9.186;2024-03-06T03:11:14;13.50;;;7.40;;
809;SDS011;387;48.772;9.186;2024-03-06T03:13:41;13.00;;;7.10;;
809;SDS011;387;48.772;9.186;2024-03-06T03:16:06;11.03;;;6.70;;
809;SDS011;387;48.772;9.186;2024-03-06T03:18:32;8.57;;;6.30;;
809;SDS011;387;48.772;9.186;2024-03-06T03:20:57;8.90;;;6.57;;
809;SDS011;387;48.772;9.186;2024-03-06T03:23:23;13.00;;;5.97;;
809;SDS011;387;48.772;9.186;2024-03-06T03:25:48;10.20;;;6.13;;
809;SDS011;387;48.772;9.186;2024-03-06T03:28:14;13.80;;;7.83;;
809;SDS011;387;48.772;9.186;2024-03-06T03:30:42;14.70;;;7.40;;
809;SDS011;387;48.772;9.186;2024-03-06T03:33:09;13.33;;;6.30;;
809;SDS011;387;48.772;9.186;2024-03-06T03:35:34;11.83;;;6.23;;
809;SDS011;387;48.772;9.186;2024-03-06T03:38:00;13.17;;;7.03;;
809;SDS011;387;48.772;9.186;2024-03-06T03:40:25;9.10;;;5.67;;
809;SDS011;387;48.772;9.186;2024-03-06T03:42:51;9.00;;;6.17;;
809;SDS011;387;48.772;9.186;2024-03-06T03:45:17;11.13;;;4.60;;
809;SDS011;387;48.772;9.186;2024-03-06T03:47:43;12.23;;;5.10;;
809;SDS011;387;48.772;9.186;2024-03-06T03:50:08;7.70;;;4.60;;
809;SDS011;387;48.772;9.186;2024-03-06T03:52:34;10.70;;;4.30;;
809;SDS011;387;48.772;9.186;2024-03-06T03:55:00;5.80;;;4.30;;
809;SDS011;387;48.772;9.186;2024-03-06T03:57:25;7.77;;;4.80;;
809;SDS011;387;48.772;9.186;2024-03-06T03:59:51;9.50;;;4.83;;
809;SDS011;387;48.772;9.186;2024-03-06T04:02:17;8.93;;;4.70;;
809;SDS011;387;48.772;9.186;2024-03-06T04:04:42;7.47;;;5.10;;
809;SDS011;387;48.772;9.186;2024-03-06T04:07:08;9.97;;;4.63;;
809;SDS011;387;48.772;9.186;2024-03-06T04:09:33;7.73;;;4.50;;
809;SDS011;387;48.772;9.186;2024-03-06T04:12:04;9.27;;;5.20;;
809;SDS011;387;48.772;9.186;2024-03-06T04:14:29;8.07;;;4.67;;
809;SDS011;387;48.772;9.186;2024-03-06T04:16:55;10.13;;;5.00;;
809;SDS011;387;48.772;9.186;2024-03-06T04:19:21;7.83;;;5.20;;
809;SDS011;387;48.772;9.186;2024-03-06T04:21:46;11.97;;;5.23;;
809;SDS011;387;48.772;9.186;2024-03-06T04:24:12;10.50;;;4.70;;
809;SDS011;387;48.772;9.186;2024-03-06T04:26:38;10.87;;;4.77;;
809;SDS011;387;48.772;9.186;2024-03-06T04:29:03;5.97;;;4.30;;
809;SDS011;387;48.772;9.186;2024-03-06T04:31:29;8.23;;;4.97;;
809;SDS011;387;48.772;9.186;2024-03-06T04:33:54;6.13;;;4.23;;
809;SDS011;387;48.772;9.186;2024-03-06T04:36:20;9.30;;;4.70;;
809;SDS011;387;48.772;9.186;2024-03-06T04:38:45;13.70;;;5.33;;
809;SDS011;387;48.772;9.186;2024-03-06T04:41:11;8.40;;;5.23;;
809;SDS011;387;48.772;9.186;2024-03-06T04:43:37;8.00;;;4.93;;
809;SDS011;387;48.772;9.186;2024-03-06T04:46:03;9.20;;;5.30;;
809;SDS011;387;48.772;9.186;2024-03-06T04:48:29;10.10;;;5.10;;
809;SDS011;387;48.772;9.186;2024-03-06T04:50:54;12.47;;;5.33;;
809;SDS011;387;48.772;9.186;2024-03-06T04:53:20;10.23;;;5.87;;
809;SDS011;387;48.772;9.186;2024-03-06T04:55:46;9.10;;;5.00;;
809;SDS011;387;48.772;9.186;2024-03-06T04:58:12;10.90;;;5.27;;
809;SDS011;387;48.772;9.186;2024-03-06T05:00:38;10.63;;;5.10;;
809;SDS011;387;48.772;9.186;2024-03-06T05:03:03;10.10;;;5.90;;
809;SDS011;387;48.772;9.186;2024-03-06T05:05:30;10.77;;;4.40;;
809;SDS011;387;48.772;9.186;2024-03-06T05:07:55;10.67;;;4.80;;
809;SDS011;387;48.772;9.186;2024-03-06T05:10:21;11.37;;;4.63;;
809;SDS011;387;48.772;9.186;2024-03-06T05:12:47;9.57;;;6.03;;
809;SDS011;387;48.772;9.186;2024-03-06T05:15:13;8.77;;;5.33;;
809;SDS011;387;48.772;9.186;2024-03-06T05:17:38;8.07;;;5.17;;
809;SDS011;387;48.772;9.186;2024-03-06T05:20:04;11.33;;;5.23;;
809;SDS011;387;48.772;9.186;2024-03-06T05:22:30;13.30;;;5.40;;
809;SDS011;387;48.772;9.186;2024-03-06T05:24:56;8.20;;;4.80;;
809;SDS011;387;48.772;9.186;2024-03-06T05:27:23;11.17;;;6.00;;
809;SDS011;387;48.772;9.186;2024-03-06T05:29:49;7.80;;;5.97;;
809;SDS011;387;48.772;9.186;2024-03-06T05:32:15;13.27;;;5.40;;
809;SDS011;387;48.772;9.186;2024-03-06T05:34:40;8.87;;;5.43;;
809;SDS011;387;48.772;9.186;2024-03-06T05:37:06;9.50;;;5.13;;
809;SDS011;387;48.772;9.186;2024-03-06T05:39:32;8.93;;;5.53;;
809;SDS011;387;48.772;9.186;2024-03-06T05:42:01;9.77;;;5.00;;
809;SDS011;387;48.772;9.186;2024-03-06T05:44:33;9.63;;;5.30;;
809;SDS011;387;48.772;9.186;2024-03-06T05:47:00;9.80;;;5.27;;
809;SDS011;387;48.772;9.186;2024-03-06T05:49:27;12.43;;;5.90;;
809;SDS011;387;48.772;9.186;2024-03-06T05:51:53;11.57;;;5.67;;
809;SDS011;387;48.772;9.186;2024-03-06T05:54:22;11.47;;;5.97;;
809;SDS011;387;48.772;9.186;2024-03-06T05:56:48;9.70;;;4.93;;
809;SDS011;387;48.772;9.186;2024-03-06T05:59:18;20.07;;;6.47;;
809;SDS011;387;48.772;9.186;2024-03-06T06:01:44;12.43;;;6.70;;
809;SDS011;387;48.772;9.186;2024-03-06T06:04:10;10.90;;;5.80;;
809;SDS011;387;48.772;9.186;2024-03-06T06:06:36;11.40;;;5.80;;
809;SDS011;387;48.772;9.186;2024-03-06T06:09:02;11.97;;;5.97;;
809;SDS011;387;48.772;9.186;2024-03-06T06:11:31;14.63;;;6.20;;
809;SDS011;387;48.772;9.186;2024-03-06T06:14:00;11.43;;;5.93;;
809;SDS011;387;48.772;9.186;2024-03-06T06:16:25;12.53;;;6.10;;
809;SDS011;387;48.772;9.186;2024-03-06T06:18:51;10.63;;;6.10;;
809;SDS011;387;48.772;9.186;2024-03-06T06:21:17;10.57;;;5.43;;
809;SDS011;387;48.772;9.186;2024-03-06T06:23:43;10.50;;;6.00;;
809;SDS011;387;48.772;9.186;2024-03-06T06:26:09;12.57;;;6.43;;
809;SDS011;387;48.772;9.186;2024-03-06T06:28:35;12.53;;;6.03;;
809;SDS011;387;48.772;9.186;2024-03-06T06:31:02;13.63;;;6.00;;
809;SDS011;387;48.772;9.186;2024-03-06T06:33:29;13.23;;;6.97;;
809;SDS011;387;48.772;9.186;2024-03-06T06:35:54;35.70;;;6.87;;
809;SDS011;387;48.772;9.186;2024-03-06T06:38:20;8.97;;;6.13;;
809;SDS011;387;48.772;9.186;2024-03-06T06:40:46;12.20;;;6.70;;
809;SDS011;387;48.772;9.186;2024-03-06T06:43:12;11.97;;;6.77;;
809;SDS011;387;48.772;9.186;2024-03-06T06:45:38;14.00;;;6.97;;
809;SDS011;387;48.772;9.186;2024-03-06T06:48:04;14.23;;;7.00;;
809;SDS011;387;48.772;9.186;2024-03-06T06:50:29;17.20;;;7.10;;
809;SDS011;387;48.772;9.186;2024-03-06T06:52:58;11.20;;;6.60;;
809;SDS011;387;48.772;9.186;2024-03-06T06:55:24;13.90;;;7.50;;
809;SDS011;387;48.772;9.186;2024-03-06T06:57:50;14.10;;;6.50;;
809;SDS011;387;48.772;9.186;2024-03-06T07:00:16;11.63;;;6.87;;
809;SDS011;387;48.772;9.186;2024-03-06T07:02:43;20.50;;;7.53;;
809;SDS011;387;48.772;9.186;2024-03-06T07:05:10;12.17;;;5.90;;
809;SDS011;387;48.772;9.186;2024-03-06T07:07:36;12.40;;;6.20;;
809;SDS011;387;48.772;9.186;2024-03-06T07:10:03;14.83;;;7.57;;
809;SDS011;387;48.772;9.186;2024-03-06T07:12:29;11.13;;;7.03;;
809;SDS011;387;48.772;9.186;2024-03-06T07:14:55;10.70;;;6.27;;
809;SDS011;387;48.772;9.186;2024-03-06T07:17:21;12.37;;;7.30;;
809;SDS011;387;48.772;9.186;2024-03-06T07:19:46;13.00;;;7.07;;
809;SDS011;387;48.772;9.186;2024-03-06T07:22:12;10.27;;;6.30;;
809;SDS011;387;48.772;9.186;2024-03-06T07:24:38;17.57;;;7.23;;
809;SDS011;387;48.772;9.186;2024-03-06T07:27:03;13.20;;;6.60;;
809;SDS011;387;48.772;9.186;2024-03-06T07:29:29;14.23;;;7.37;;
809;SDS011;387;48.772;9.186;2024-03-06T07:31:55;18.03;;;7.90;;
809;SDS011;387;48.772;9.186;2024-03-06T07:34:20;14.73;;;7.70;;
809;SDS011;387;48.772;9.186;2024-03-06T07:36:46;12.03;;;7.43;;
809;SDS011;387;48.772;9.186;2024-03-06T07:39:12;14.33;;;7.33;;
809;SDS011;387;48.772;9.186;2024-03-06T07:41:40;12.70;;;7.13;;
809;SDS011;387;48.772;9.186;2024-03-06T07:44:05;12.90;;;7.80;;
809;SDS011;387;48.772;9.186;2024-03-06T07:46:31;15.10;;;7.67;;
809;SDS011;387;48.772;9.186;2024-03-06T07:48:56;12.17;;;6.97;;
809;SDS011;387;48.772;9.186;2024-03-06T07:51:22;16.60;;;7.40;;
809;SDS011;387;48.772;9.186;2024-03-06T07:53:48;12.50;;;7.43;;
809;SDS011;387;48.772;9.186;2024-03-06T07:56:17;17.73;;;9.20;;
809;SDS011;387;48.772;9.186;2024-03-06T07:58:42;15.83;;;8.60;;
809;SDS011;387;48.772;9.186;2024-03-06T08:01:08;31.33;;;13.10;;
809;SDS011;387;48.772;9.186;2024-03-06T08:03:34;15.80;;;7.63;;
809;SDS011;387;48.772;9.186;2024-03-06T08:06:00;13.70;;;7.50;;
809;SDS011;387;48.772;9.186;2024-03-06T08:08:27;15.20;;;8.13;;
809;SDS011;387;48.772;9.186;2024-03-06T08:10:52;15.93;;;7.20;;
809;SDS011;387;48.772;9.186;2024-03-06T08:13:18;13.37;;;7.50;;
809;SDS011;387;48.772;9.186;2024-03-06T08:15:46;16.37;;;8.40;;
809;SDS011;387;48.772;9.186;2024-03-06T08:18:12;15.50;;;8.20;;
809;SDS011;387;48.772;9.186;2024-03-06T08:20:38;14.00;;;7.60;;
809;SDS011;387;48.772;9.186;2024-03-06T08:23:04;12.73;;;6.70;;
809;SDS011;387;48.772;9.186;2024-03-06T08:25:30;11.20;;;6.47;;
809;SDS011;387;48.772;9.186;2024-03-06T08:27:57;11.80;;;6.53;;
809;SDS011;387;48.772;9.186;2024-03-06T08:30:24;11.73;;;5.83;;
809;SDS011;387;48.772;9.186;2024-03-06T08:32:50;13.70;;;6.80;;
809;SDS011;387;48.772;9.186;2024-03-06T08:35:16;11.50;;;6.23;;
809;SDS011;387;48.772;9.186;2024-03-06T08:37:43;11.83;;;6.67;;
809;SDS011;387;48.772;9.186;2024-03-06T08:40:09;16.60;;;7.23;;
809;SDS011;387;48.772;9.186;2024-03-06T08:42:39;13.10;;;7.30;;
809;SDS011;387;48.772;9.186;2024-03-06T08:45:14;11.63;;;6.90;;
809;SDS011;387;48.772;9.186;2024-03-06T08:47:40;14.10;;;7.53;;
809;SDS011;387;48.772;9.186;2024-03-06T08:50:06;15.10;;;6.97;;
809;SDS011;387;48.772;9.186;2024-03-06T08:52:32;13.03;;;7.40;;
809;SDS011;387;48.772;9.186;2024-03-06T08:55:02;11.63;;;6.10;;
809;SDS011;387;48.772;9.186;2024-03-06T08:57:31;12.33;;;7.23;;
809;SDS011;387;48.772;9.186;2024-03-06T08:59:57;13.10;;;6.20;;
809;SDS011;387;48.772;9.186;2024-03-06T09:02:23;36.73;;;7.27;;
809;SDS011;387;48.772;9.186;2024-03-06T09:04:50;16.83;;;7.33;;
809;SDS011;387;48.772;9.186;2024-03-06T09:07:17;13.50;;;7.87;;
809;SDS011;387;48.772;9.186;2024-03-06T09:09:43;12.10;;;7.17;;
809;SDS011;387;48.772;9.186;2024-03-06T09:12:09;15.10;;;8.13;;
809;SDS011;387;48.772;9.186;2024-03-06T09:14:35;14.50;;;7.73;;
809;SDS011;387;48.772;9.186;2024-03-06T09:17:06;15.23;;;7.63;;
809;SDS011;387;48.772;9.186;2024-03-06T09:19:35;17.33;;;8.13;;
809;SDS011;387;48.772;9.186;2024-03-06T09:22:01;13.30;;;8.90;;
809;SDS011;387;48.772;9.186;2024-03-06T09:24:27;17.33;;;8.20;;
809;SDS011;387;48.772;9.186;2024-03-06T09:26:53;19.63;;;8.80;;
809;SDS011;387;48.772;9.186;2024-03-06T09:29:19;12.47;;;8.13;;
809;SDS011;387;48.772;9.186;2024-03-06T09:31:46;21.17;;;8.90;;
809;SDS011;387;48.772;9.186;2024-03-06T09:34:15;16.00;;;9.20;;
809;SDS011;387;48.772;9.186;2024-03-06T09:36:40;14.57;;;8.23;;
809;SDS011;387;48.772;9.186;2024-03-06T09:39:16;14.80;;;8.50;;
809;SDS011;387;48.772;9.186;2024-03-06T09:41:45;15.20;;;7.53;;
809;SDS011;387;48.772;9.186;2024-03-06T09:44:12;14.07;;;8.90;;
809;SDS011;387;48.772;9.186;2024-03-06T09:46:42;12.73;;;8.37;;
809;SDS011;387;48.772;9.186;2024-03-06T09:49:09;15.00;;;8.60;;
809;SDS011;387;48.772;9.186;2024-03-06T09:51:42;14.53;;;9.10;;
809;SDS011;387;48.772;9.186;2024-03-06T09:54:12;14.30;;;8.73;;
809;SDS011;387;48.772;9.186;2024-03-06T09:56:42;15.83;;;9.17;;
809;SDS011;387;48.772;9.186;2024-03-06T09:59:11;14.80;;;9.23;;
809;SDS011;387;48.772;9.186;2024-03-06T10:01:39;19.90;;;10.53;;
809;SDS011;387;48.772;9.186;2024-03-06T10:04:44;20.37;;;10.90;;
809;SDS011;387;48.772;9.186;2024-03-06T10:07:03;24.37;;;11.57;;
809;SDS011;387;48.772;9.186;2024-03-06T10:09:29;24.00;;;12.37;;
809;SDS011;387;48.772;9.186;2024-03-06T10:11:56;21.50;;;14.00;;
809;SDS011;387;48.772;9.186;2024-03-06T10:14:22;19.37;;;10.33;;
809;SDS011;387;48.772;9.186;2024-03-06T10:17:00;22.67;;;12.90;;
809;SDS011;387;48.772;9.186;2024-03-06T10:19:26;25.40;;;13.47;;
809;SDS011;387;48.772;9.186;2024-03-06T10:21:54;24.70;;;13.10;;
809;SDS011;387;48.772;9.186;2024-03-06T10:24:22;19.20;;;11.10;;
809;SDS011;387;48.772;9.186;2024-03-06T10:26:50;22.17;;;13.00;;
809;SDS011;387;48.772;9.186;2024-03-06T10:29:19;25.80;;;14.27;;
809;SDS011;387;48.772;9.186;2024-03-06T10:31:51;22.10;;;12.77;;
809;SDS011;387;48.772;9.186;2024-03-06T10:34:19;25.50;;;13.70;;
809;SDS011;387;48.772;9.186;2024-03-06T10:36:47;24.83;;;12.80;;
809;SDS011;387;48.772;9.186;2024-03-06T10:39:19;21.87;;;12.80;;
809;SDS011;387;48.772;9.186;2024-03-06T10:41:45;27.70;;;14.93;;
809;SDS011;387;48.772;9.186;2024-03-06T10:44:14;27.10;;;15.20;;
809;SDS011;387;48.772;9.186;2024-03-06T10:46:43;28.13;;;14.90;;
809;SDS011;387;48.772;9.186;2024-03-06T10:49:12;38.73;;;17.50;;
809;SDS011;387;48.772;9.186;2024-03-06T10:51:40;33.27;;;17.30;;
809;SDS011;387;48.772;9.186;2024-03-06T10:54:08;30.73;;;16.03;;
809;SDS011;387;48.772;9.186;2024-03-06T10:56:35;29.60;;;15.40;;
809;SDS011;387;48.772;9.186;2024-03-06T10:59:04;30.90;;;17.23;;
809;SDS011;387;48.772;9.186;2024-03-06T11:01:31;29.93;;;17.07;;
809;SDS011;387;48.772;9.186;2024-03-06T11:03:59;30.87;;;15.90;;
809;SDS011;387;48.772;9.186;2024-03-06T11:06:25;35.50;;;16.47;;
809;SDS011;387;48.772;9.186;2024-03-06T11:08:51;33.07;;;16.97;;
809;SDS011;387;48.772;9.186;2024-03-06T11:11:21;36.30;;;19.47;;
809;SDS011;387;48.772;9.186;2024-03-06T11:13:47;34.90;;;18.30;;
809;SDS011;387;48.772;9.186;2024-03-06T11:16:13;34.27;;;18.90;;
809;SDS011;387;48.772;9.186;2024-03-06T11:23:30;40.03;;;20.00;;
809;SDS011;387;48.772;9.186;2024-03-06T11:26:02;42.33;;;21.40;;
809;SDS011;387;48.772;9.186;2024-03-06T11:28:29;41.67;;;20.80;;
809;SDS011;387;48.772;9.186;2024-03-06T11:31:11;36.67;;;19.13;;
809;SDS011;387;48.772;9.186;2024-03-06T11:33:44;44.00;;;20.50;;
809;SDS011;387;48.772;9.186;2024-03-06T11:36:14;38.20;;;18.33;;
809;SDS011;387;48.772;9.186;2024-03-06T11:41:33;48.50;;;20.43;;
809;SDS011;387;48.772;9.186;2024-03-06T11:44:14;46.07;;;20.77;;
809;SDS011;387;48.772;9.186;2024-03-06T11:46:59;49.33;;;23.97;;
809;SDS011;387;48.772;9.186;2024-03-06T11:49:27;42.23;;;20.97;;
809;SDS011;387;48.772;9.186;2024-03-06T11:51:59;47.60;;;22.43;;
809;SDS011;387;48.772;9.186;2024-03-06T11:54:30;47.93;;;22.37;;
809;SDS011;387;48.772;9.186;2024-03-06T11:56:57;44.63;;;21.83;;
809;SDS011;387;48.772;9.186;2024-03-06T11:59:25;45.83;;;23.43;;
809;SDS011;387;48.772;9.186;2024-03-06T12:01:52;51.60;;;23.47;;
809;SDS011;387;48.772;9.186;2024-03-06T12:04:19;46.67;;;22.27;;
809;SDS011;387;48.772;9.186;2024-03-06T12:06:46;51.57;;;21.87;;
809;SDS011;387;48.772;9.186;2024-03-06T12:09:12;44.47;;;21.43;;
809;SDS011;387;48.772;9.186;2024-03-06T12:11:37;44.40;;;22.27;;
809;SDS011;387;48.772;9.186;2024-03-06T12:14:03;39.83;;;18.83;;
809;SDS011;387;48.772;9.186;2024-03-06T12:16:29;45.63;;;22.47;;
809;SDS011;387;48.772;9.186;2024-03-06T12:18:55;44.90;;;20.97;;
809;SDS011;387;48.772;9.186;2024-03-06T12:21:31;43.27;;;22.07;;
809;SDS011;387;48.772;9.186;2024-03-06T12:24:09;47.30;;;21.40;;
809;SDS011;387;48.772;9.186;2024-03-06T12:26:35;49.80;;;21.90;;
809;SDS011;387;48.772;9.186;2024-03-06T12:29:08;42.80;;;20.50;;
809;SDS011;387;48.772;9.186;2024-03-06T12:31:36;43.33;;;20.97;;
809;SDS011;387;48.772;9.186;2024-03-06T12:34:04;48.37;;;21.97;;
809;SDS011;387;48.772;9.186;2024-03-06T12:36:31;43.00;;;18.90;;
809;SDS011;387;48.772;9.186;2024-03-06T12:39:04;48.80;;;23.33;;
809;SDS011;387;48.772;9.186;2024-03-06T12:41:37;46.03;;;21.30;;
809;SDS011;387;48.772;9.186;2024-03-06T12:44:04;44.53;;;19.00;;
809;SDS011;387;48.772;9.186;2024-03-06T12:46:31;54.87;;;21.50;;
809;SDS011;387;48.772;9.186;2024-03-06T12:48:57;41.53;;;20.00;;
809;SDS011;387;48.772;9.186;2024-03-06T12:51:23;43.67;;;20.97;;
809;SDS011;387;48.772;9.186;2024-03-06T12:53:48;50.00;;;23.00;;
809;SDS011;387;48.772;9.186;2024-03-06T12:56:14;48.17;;;21.30;;
809;SDS011;387;48.772;9.186;2024-03-06T12:58:40;41.57;;;20.07;;
809;SDS011;387;48.772;9.186;2024-03-06T13:01:05;49.07;;;22.47;;
809;SDS011;387;48.772;9.186;2024-03-06T13:03:31;49.60;;;22.83;;
809;SDS011;387;48.772;9.186;2024-03-06T13:05:57;48.10;;;23.00;;
809;SDS011;387;48.772;9.186;2024-03-06T13:08:22;54.83;;;22.70;;
809;SDS011;387;48.772;9.186;2024-03-06T13:10:48;47.90;;;20.90;;
809;SDS011;387;48.772;9.186;2024-03-06T13:13:14;47.47;;;22.53;;
809;SDS011;387;48.772;9.186;2024-03-06T13:15:39;44.73;;;20.93;;
809;SDS011;387;48.772;9.186;2024-03-06T13:18:05;49.47;;;22.27;;
809;SDS011;387;48.772;9.186;2024-03-06T13:20:34;49.60;;;22.77;;
809;SDS011;387;48.772;9.186;2024-03-06T13:23:00;45.43;;;20.87;;
809;SDS011;387;48.772;9.186;2024-03-06T13:25:26;51.83;;;22.47;;
809;SDS011;387;48.772;9.186;2024-03-06T13:27:51;49.03;;;22.80;;
809;SDS011;387;48.772;9.186;2024-03-06T13:30:17;40.27;;;19.87;;
809;SDS011;387;48.772;9.186;2024-03-06T13:32:43;41.77;;;20.03;;
809;SDS011;387;48.772;9.186;2024-03-06T13:35:10;43.90;;;20.10;;
809;SDS011;387;48.772;9.186;2024-03-06T13:37:39;38.57;;;19.47;;
809;SDS011;387;48.772;9.186;2024-03-06T13:40:06;39.27;;;19.07;;
809;SDS011;387;48.772;9.186;2024-03-06T13:42:33;42.37;;;20.77;;
809;SDS011;387;48.772;9.186;2024-03-06T13:45:00;40.47;;;19.20;;
809;SDS011;387;48.772;9.186;2024-03-06T13:47:26;36.47;;;19.40;;
809;SDS011;387;48.772;9.186;2024-03-06T13:49:51;37.33;;;18.73;;
809;SDS011;387;48.772;9.186;2024-03-06T13:52:17;42.23;;;19.10;;
809;SDS011;387;48.772;9.186;2024-03-06T13:54:45;42.50;;;21.33;;
809;SDS011;387;48.772;9.186;2024-03-06T13:57:12;37.03;;;17.87;;
809;SDS011;387;48.772;9.186;2024-03-06T13:59:38;42.10;;;20.50;;
809;SDS011;387;48.772;9.186;2024-03-06T14:02:06;45.10;;;19.93;;
809;SDS011;387;48.772;9.186;2024-03-06T14:04:32;46.33;;;21.60;;
809;SDS011;387;48.772;9.186;2024-03-06T14:06:57;38.00;;;19.23;;
809;SDS011;387;48.772;9.186;2024-03-06T14:09:24;43.27;;;20.70;;
809;SDS011;387;48.772;9.186;2024-03-06T14:11:51;44.17;;;20.47;;
809;SDS011;387;48.772;9.186;2024-03-06T14:14:19;44.60;;;21.40;;
809;SDS011;387;48.772;9.186;2024-03-06T14:16:45;41.93;;;20.07;;
809;SDS011;387;48.772;9.186;2024-03-06T14:19:11;43.97;;;21.93;;
809;SDS011;387;48.772;9.186;2024-03-06T14:21:37;41.83;;;20.83;;
809;SDS011;387;48.772;9.186;2024-03-06T14:24:05;46.37;;;22.10;;
809;SDS011;387;48.772;9.186;2024-03-06T14:26:32;45.20;;;22.10;;
809;SDS011;387;48.772;9.186;2024-03-06T14:28:58;46.07;;;23.47;;
809;SDS011;387;48.772;9.186;2024-03-06T14:31:25;43.90;;;19.60;;
809;SDS011;387;48.772;9.186;2024-03-06T14:33:51;46.47;;;22.80;;
809;SDS011;387;48.772;9.186;2024-03-06T14:36:17;45.50;;;21.23;;
809;SDS011;387;48.772;9.186;2024-03-06T14:38:43;51.63;;;21.00;;
809;SDS011;387;48.772;9.186;2024-03-06T14:41:11;42.80;;;22.80;;
809;SDS011;387;48.772;9.186;2024-03-06T14:43:46;46.03;;;22.07;;
809;SDS011;387;48.772;9.186;2024-03-06T14:46:12;50.77;;;21.63;;
809;SDS011;387;48.772;9.186;2024-03-06T14:48:38;42.37;;;21.43;;
809;SDS011;387;48.772;9.186;2024-03-06T14:51:05;44.40;;;21.67;;
809;SDS011;387;48.772;9.186;2024-03-06T14:53:31;44.17;;;20.97;;
809;SDS011;387;48.772;9.186;2024-03-06T14:55:57;46.30;;;21.60;;
809;SDS011;387;48.772;9.186;2024-03-06T14:58:23;45.20;;;21.57;;
809;SDS011;387;48.772;9.186;2024-03-06T15:00:49;47.27;;;22.17;;
809;SDS011;387;48.772;9.186;2024-03-06T15:03:16;37.87;;;19.30;;
809;SDS011;387;48.772;9.186;2024-03-06T15:05:45;37.70;;;19.03;;
809;SDS011;387;48.772;9.186;2024-03-06T15:08:11;40.73;;;20.20;;
809;SDS011;387;48.772;9.186;2024-03-06T15:10:37;52.80;;;21.83;;
809;SDS011;387;48.772;9.186;2024-03-06T15:13:03;44.97;;;20.00;;
809;SDS011;387;48.772;9.186;2024-03-06T15:15:28;44.33;;;20.70;;
809;SDS011;387;48.772;9.186;2024-03-06T15:17:55;38.27;;;18.10;;
809;SDS011;387;48.772;9.186;2024-03-06T15:20:21;43.90;;;20.07;;
809;SDS011;387;48.772;9.186;2024-03-06T15:22:47;38.10;;;19.77;;
809;SDS011;387;48.772;9.186;2024-03-06T15:25:13;40.47;;;19.83;;
809;SDS011;387;48.772;9.186;2024-03-06T15:27:40;48.70;;;22.43;;
809;SDS011;387;48.772;9.186;2024-03-06T15:30:06;42.77;;;20.00;;
809;SDS011;387;48.772;9.186;2024-03-06T15:32:34;44.93;;;22.03;;
809;SDS011;387;48.772;9.186;2024-03-06T15:35:00;51.70;;;23.13;;
809;SDS011;387;48.772;9.186;2024-03-06T15:37:26;39.57;;;19.10;;